Terminal Aerodrome Forecast
Issued by NWS

Current Version | Previous Version | Graphics & Text | Print | Product List | Glossary On
Versions: 1 2 3 4 5 6 7 8 9 10 11 12 13 14 15 16 17 18 19 20 21 22 23 24
000
FTUS41 KILN 220058 AAA
TAFLUK
TAF AMD
KLUK 220058Z 2201/2224 VRB03KT 5SM -SHRA BR OVC050
      TEMPO 2201/2204 2SM -SHRA BR
     FM220400 00000KT 4SM BR VCSH OVC040
     FM220600 00000KT 4SM BR VCSH OVC018
     FM221100 00000KT 2SM BR OVC009
     FM221500 19004KT 5SM BR OVC012
     FM221900 19005KT P6SM BKN025=

USA.gov is the U.S. government's official web portal to all federal, state and local government web resources and services.